createdAt,value
2017-12-15T00:00:38.285Z,3.70
2017-12-15T00:03:05.228Z,3.60
2017-12-15T00:05:32.156Z,3.60
2017-12-15T00:07:59.080Z,3.60
2017-12-15T00:10:26.753Z,3.70
2017-12-15T00:12:53.686Z,3.70
2017-12-15T00:15:21.370Z,3.60
2017-12-15T00:17:48.315Z,3.90
2017-12-15T00:20:15.237Z,3.60
2017-12-15T00:22:42.938Z,3.60
2017-12-15T00:25:09.860Z,3.80
2017-12-15T00:27:36.789Z,3.60
2017-12-15T00:30:04.465Z,3.70
2017-12-15T00:32:31.411Z,3.80
2017-12-15T00:34:58.325Z,3.70
2017-12-15T00:37:26.037Z,3.70
2017-12-15T00:39:52.957Z,3.70
2017-12-15T00:42:19.887Z,3.60
2017-12-15T00:44:47.563Z,3.70
2017-12-15T00:47:14.486Z,3.90
2017-12-15T00:49:42.157Z,3.70
2017-12-15T00:52:09.852Z,3.80
2017-12-15T00:54:36.760Z,3.70
2017-12-15T00:57:04.488Z,3.70
2017-12-15T00:59:31.405Z,4.00
2017-12-15T01:01:58.346Z,3.70
2017-12-15T01:04:25.252Z,3.70
2017-12-15T01:06:52.937Z,3.70
2017-12-15T01:09:19.848Z,3.80
2017-12-15T01:11:47.543Z,3.70
2017-12-15T01:14:14.449Z,3.70
2017-12-15T01:16:41.381Z,3.70
2017-12-15T01:19:08.305Z,3.60
2017-12-15T01:21:35.236Z,3.60
2017-12-15T01:24:02.136Z,3.70
2017-12-15T01:26:29.825Z,3.60
2017-12-15T01:28:56.741Z,3.80
2017-12-15T01:31:24.438Z,3.60
2017-12-15T01:33:51.348Z,3.70
2017-12-15T01:36:19.037Z,3.60
2017-12-15T01:38:45.940Z,3.70
2017-12-15T01:46:43.672Z,3.60
2017-12-15T01:49:11.321Z,3.50
2017-12-15T01:51:39.065Z,3.50
2017-12-15T01:54:05.964Z,3.50
2017-12-15T01:56:32.867Z,3.50
2017-12-15T01:59:00.522Z,3.60
2017-12-15T02:01:27.426Z,3.60
2017-12-15T02:03:54.335Z,3.60
2017-12-15T02:06:21.269Z,3.50
2017-12-15T02:08:48.945Z,3.50
2017-12-15T02:11:15.895Z,3.40
2017-12-15T02:13:42.851Z,3.40
2017-12-15T02:16:09.761Z,3.40
2017-12-15T02:18:37.455Z,3.40
2017-12-15T02:21:04.389Z,3.30
2017-12-15T02:23:31.308Z,3.40
2017-12-15T02:25:59.001Z,3.40
2017-12-15T02:28:25.904Z,3.50
2017-12-15T02:30:53.598Z,3.50
2017-12-15T02:33:20.514Z,3.60
2017-12-15T02:35:48.267Z,3.60
2017-12-15T02:38:15.146Z,3.50
2017-12-15T02:40:42.064Z,3.50
2017-12-15T02:43:08.967Z,3.40
2017-12-15T02:45:35.879Z,3.40
2017-12-15T02:48:02.809Z,3.40
2017-12-15T02:50:30.500Z,3.40
2017-12-15T02:52:57.442Z,3.50
2017-12-15T02:55:24.374Z,3.30
2017-12-15T02:57:51.310Z,3.40
2017-12-15T03:00:18.224Z,3.40
2017-12-15T03:02:45.179Z,3.40
2017-12-15T03:05:12.864Z,3.40
2017-12-15T03:07:39.789Z,3.50
2017-12-15T03:10:07.462Z,3.40
2017-12-15T03:12:34.400Z,3.30
2017-12-15T03:15:02.076Z,3.40
2017-12-15T03:17:29.741Z,3.30
2017-12-15T03:19:56.648Z,3.40
2017-12-15T03:22:24.342Z,3.40
2017-12-15T03:24:51.249Z,3.60
2017-12-15T03:27:18.176Z,3.40
2017-12-15T03:29:45.084Z,3.40
2017-12-15T03:32:12.009Z,3.50
2017-12-15T03:34:38.916Z,3.60
2017-12-15T03:37:05.856Z,3.50
2017-12-15T03:39:32.800Z,3.50
2017-12-15T03:41:59.700Z,3.60
2017-12-15T03:44:26.619Z,3.60
2017-12-15T03:46:54.309Z,3.60
2017-12-15T03:49:21.220Z,3.60
2017-12-15T03:51:48.910Z,3.50
2017-12-15T03:54:15.816Z,3.60
2017-12-15T03:56:42.732Z,3.40
2017-12-15T03:59:09.645Z,3.50
2017-12-15T04:01:36.568Z,3.50
2017-12-15T04:04:04.240Z,3.70
2017-12-15T04:06:31.172Z,3.60
2017-12-15T04:08:58.845Z,3.60
2017-12-15T04:11:25.764Z,3.50
2017-12-15T04:13:54.449Z,3.60
2017-12-15T04:16:21.372Z,3.60
2017-12-15T04:18:49.799Z,3.60
2017-12-15T04:21:16.729Z,3.30
2017-12-15T04:23:44.400Z,3.50
2017-12-15T04:26:12.085Z,3.50
2017-12-15T04:28:38.988Z,3.60
2017-12-15T04:31:06.683Z,3.60
2017-12-15T04:33:33.584Z,3.70
2017-12-15T04:36:00.545Z,3.50
2017-12-15T04:38:28.229Z,3.60
2017-12-15T04:40:55.140Z,3.60
2017-12-15T04:43:22.067Z,3.60
2017-12-15T04:45:49.000Z,3.50
2017-12-15T04:48:15.901Z,3.40
2017-12-15T04:50:42.818Z,3.40
2017-12-15T04:53:10.489Z,3.30
2017-12-15T04:55:38.177Z,3.30
2017-12-15T04:58:05.090Z,3.40
2017-12-15T05:00:32.788Z,3.40
2017-12-15T05:02:59.713Z,3.40
2017-12-15T05:05:26.648Z,3.30
2017-12-15T05:07:54.320Z,3.20
2017-12-15T05:10:21.249Z,3.40
2017-12-15T05:12:49.936Z,3.20
2017-12-15T05:15:17.629Z,3.10
2017-12-15T05:17:44.540Z,3.20
2017-12-15T05:20:11.461Z,3.10
2017-12-15T05:22:38.388Z,3.10
2017-12-15T05:25:05.328Z,3.10
2017-12-15T05:27:32.237Z,3.20
2017-12-15T05:29:59.159Z,3.20
2017-12-15T05:32:26.836Z,3.10
2017-12-15T05:34:53.773Z,3.00
2017-12-15T05:37:21.457Z,3.20
2017-12-15T05:39:48.401Z,3.30
2017-12-15T05:42:15.318Z,3.10
2017-12-15T05:44:43.012Z,3.10
2017-12-15T05:47:09.920Z,3.20
2017-12-15T05:49:37.594Z,3.20
2017-12-15T05:52:05.285Z,3.20
2017-12-15T05:54:32.212Z,3.20
2017-12-15T05:56:59.132Z,3.10
2017-12-15T05:59:26.821Z,3.20
2017-12-15T06:01:53.731Z,3.30
2017-12-15T06:04:20.669Z,3.10
2017-12-15T06:06:47.573Z,3.20
2017-12-15T06:09:14.516Z,3.10
2017-12-15T06:11:41.441Z,3.10
2017-12-15T06:14:08.377Z,3.10
2017-12-15T06:16:36.081Z,3.00
2017-12-15T06:19:03.005Z,3.30
2017-12-15T06:21:29.913Z,3.10
2017-12-15T06:23:57.611Z,3.00
2017-12-15T06:26:24.543Z,3.00
2017-12-15T06:28:51.472Z,3.00
2017-12-15T06:31:19.140Z,3.10
2017-12-15T06:33:46.837Z,3.10
2017-12-15T06:36:13.752Z,3.10
2017-12-15T06:38:40.693Z,3.20
2017-12-15T06:41:08.389Z,3.20
2017-12-15T06:43:35.306Z,3.20
2017-12-15T06:46:02.247Z,3.20
2017-12-15T06:48:29.154Z,3.20
2017-12-15T06:50:56.092Z,3.20
2017-12-15T06:53:23.019Z,3.10
2017-12-15T06:55:49.937Z,3.20
2017-12-15T06:58:16.842Z,3.20
2017-12-15T07:00:44.592Z,3.10
2017-12-15T07:03:12.492Z,3.00
2017-12-15T07:05:40.180Z,3.10
2017-12-15T07:08:07.880Z,3.10
2017-12-15T07:10:34.793Z,3.00
2017-12-15T07:13:01.720Z,3.10
2017-12-15T07:15:28.632Z,3.20
2017-12-15T07:17:55.557Z,3.20
2017-12-15T07:20:22.468Z,3.10
2017-12-15T07:22:49.389Z,3.10
2017-12-15T07:25:17.060Z,3.20
2017-12-15T07:27:43.979Z,3.10
2017-12-15T07:30:11.656Z,3.20
2017-12-15T07:32:38.580Z,3.40
2017-12-15T07:35:05.490Z,3.20
2017-12-15T07:37:32.413Z,3.30
2017-12-15T07:40:00.084Z,3.20
2017-12-15T07:42:27.773Z,3.30
2017-12-15T07:44:54.676Z,3.40
2017-12-15T07:47:21.601Z,3.50
2017-12-15T07:49:50.124Z,3.30
2017-12-15T07:52:17.800Z,3.20
2017-12-15T07:54:44.704Z,3.30
2017-12-15T07:57:11.633Z,3.20
2017-12-15T07:59:38.532Z,3.20
2017-12-15T08:02:05.454Z,3.20
2017-12-15T08:04:33.120Z,3.20
2017-12-15T08:07:00.812Z,3.30
2017-12-15T08:09:27.715Z,3.00
2017-12-15T08:11:55.388Z,3.20
2017-12-15T08:14:23.081Z,3.30
2017-12-15T08:16:50.025Z,3.30
2017-12-15T08:19:16.926Z,3.30
2017-12-15T08:21:44.610Z,3.30
2017-12-15T08:24:11.523Z,3.20
2017-12-15T08:26:38.458Z,3.30
2017-12-15T08:29:05.364Z,3.40
2017-12-15T08:31:32.267Z,3.30
2017-12-15T08:34:00.963Z,3.20
2017-12-15T08:36:28.631Z,3.20
2017-12-15T08:38:55.555Z,3.30
2017-12-15T08:41:23.232Z,3.40
2017-12-15T08:43:50.921Z,3.30
2017-12-15T08:46:17.824Z,3.30
2017-12-15T08:48:45.506Z,3.10
2017-12-15T08:51:12.420Z,2.90
2017-12-15T08:53:39.385Z,3.10
2017-12-15T08:56:07.087Z,3.20
2017-12-15T08:58:34.081Z,3.20
2017-12-15T09:01:01.020Z,3.20
2017-12-15T09:03:29.963Z,3.20
2017-12-15T09:05:56.879Z,3.30
2017-12-15T09:08:26.505Z,3.30
2017-12-15T09:10:54.189Z,3.40
2017-12-15T09:13:21.113Z,3.60
2017-12-15T09:15:48.020Z,3.30
2017-12-15T09:18:14.948Z,3.30
2017-12-15T09:20:41.856Z,3.30
2017-12-15T09:23:08.785Z,3.30
2017-12-15T09:25:36.462Z,3.30
2017-12-15T09:28:03.383Z,3.30
2017-12-15T09:30:31.061Z,3.40
2017-12-15T09:32:57.995Z,3.60
2017-12-15T09:35:25.672Z,3.40
2017-12-15T09:37:52.600Z,3.50
2017-12-15T09:40:20.282Z,3.50
2017-12-15T09:42:47.213Z,3.50
2017-12-15T09:45:14.901Z,3.60
2017-12-15T09:47:41.853Z,3.70
2017-12-15T09:50:08.777Z,3.60
2017-12-15T09:52:36.663Z,3.50
2017-12-15T09:55:03.575Z,3.60
2017-12-15T09:57:30.500Z,3.50
2017-12-15T09:59:57.405Z,3.60
2017-12-15T10:02:24.339Z,3.50
2017-12-15T10:04:51.248Z,3.40
2017-12-15T10:07:20.145Z,3.40
2017-12-15T10:09:47.850Z,3.60
2017-12-15T10:12:16.794Z,3.50
2017-12-15T10:14:43.732Z,3.70
2017-12-15T10:17:10.639Z,3.90
2017-12-15T10:19:37.575Z,4.10
2017-12-15T10:22:04.508Z,4.10
2017-12-15T10:24:31.468Z,4.00
2017-12-15T10:26:58.364Z,4.20
2017-12-15T10:29:25.288Z,4.30
2017-12-15T10:31:52.190Z,4.20
2017-12-15T10:34:19.121Z,4.20
2017-12-15T10:36:46.029Z,4.00
2017-12-15T10:39:12.975Z,3.90
2017-12-15T10:41:39.893Z,3.90
2017-12-15T10:44:06.837Z,3.80
2017-12-15T10:46:33.779Z,3.70
2017-12-15T10:49:01.529Z,3.80
2017-12-15T10:51:29.211Z,3.80
2017-12-15T10:53:56.910Z,3.70
2017-12-15T10:56:23.835Z,3.70
2017-12-15T10:58:50.777Z,3.70
2017-12-15T11:01:17.684Z,3.60
2017-12-15T11:03:45.515Z,3.60
2017-12-15T11:06:13.249Z,3.80
2017-12-15T11:08:40.159Z,3.90
2017-12-15T11:11:07.082Z,3.80
2017-12-15T11:13:33.992Z,3.90
2017-12-15T11:16:00.917Z,4.10
2017-12-15T11:18:27.837Z,4.00
2017-12-15T11:20:54.777Z,4.10
2017-12-15T11:23:21.706Z,4.10
2017-12-15T11:25:48.642Z,4.20
2017-12-15T11:28:15.565Z,4.20
2017-12-15T11:30:42.485Z,4.10
2017-12-15T11:33:09.426Z,4.00
2017-12-15T11:35:36.404Z,4.00
2017-12-15T11:38:03.341Z,3.90
2017-12-15T11:40:30.270Z,3.90
2017-12-15T11:42:57.231Z,3.90
2017-12-15T11:45:24.157Z,4.00
2017-12-15T11:47:51.136Z,4.00
2017-12-15T11:50:18.068Z,4.00
2017-12-15T11:52:48.217Z,3.90
2017-12-15T11:55:15.141Z,4.10
2017-12-15T11:57:42.937Z,4.10
2017-12-15T12:00:09.874Z,4.10
2017-12-15T12:02:36.830Z,4.10
2017-12-15T12:05:03.756Z,4.00
2017-12-15T12:07:30.718Z,4.00
2017-12-15T12:09:57.648Z,4.00
2017-12-15T12:12:24.572Z,3.90
2017-12-15T12:14:52.307Z,3.90
2017-12-15T12:17:19.273Z,4.20
2017-12-15T12:19:46.185Z,3.90
2017-12-15T12:22:13.107Z,4.00
2017-12-15T12:24:40.021Z,3.90
2017-12-15T12:27:06.960Z,3.90
2017-12-15T12:29:33.962Z,4.00
2017-12-15T12:32:00.841Z,4.00
2017-12-15T12:34:28.533Z,3.90
2017-12-15T12:36:55.480Z,3.90
2017-12-15T12:39:22.413Z,3.90
2017-12-15T12:41:49.353Z,3.80
2017-12-15T12:44:16.323Z,3.80
2017-12-15T12:46:43.236Z,3.80
2017-12-15T12:49:10.971Z,3.70
2017-12-15T12:51:38.657Z,3.70
2017-12-15T12:54:06.378Z,3.60
2017-12-15T12:56:33.299Z,3.90
2017-12-15T12:59:00.223Z,3.70
2017-12-15T13:01:27.156Z,3.70
2017-12-15T13:03:54.898Z,3.80
2017-12-15T13:06:22.805Z,3.80
2017-12-15T13:08:49.730Z,3.80
2017-12-15T13:11:16.657Z,3.80
2017-12-15T13:13:44.336Z,3.80
2017-12-15T13:16:11.272Z,3.80
2017-12-15T13:18:38.948Z,3.80
2017-12-15T13:21:05.898Z,3.80
2017-12-15T13:23:32.813Z,3.90
2017-12-15T13:26:00.499Z,3.70
2017-12-15T13:28:29.372Z,3.90
2017-12-15T13:30:56.281Z,3.80
2017-12-15T13:33:23.200Z,3.80
2017-12-15T13:35:50.109Z,3.70
2017-12-15T13:38:17.802Z,3.70
2017-12-15T13:40:44.730Z,3.80
2017-12-15T13:43:11.651Z,3.70
2017-12-15T13:45:39.328Z,4.00
2017-12-15T13:48:06.274Z,3.90
2017-12-15T13:50:33.205Z,4.10
2017-12-15T13:53:01.912Z,4.00
2017-12-15T13:55:28.823Z,4.00
2017-12-15T13:57:55.789Z,3.90
2017-12-15T14:00:22.699Z,3.80
2017-12-15T14:02:49.620Z,3.80
2017-12-15T14:05:16.533Z,3.70
2017-12-15T14:07:43.448Z,3.70
2017-12-15T14:10:11.120Z,3.70
2017-12-15T14:12:38.833Z,3.70
2017-12-15T14:15:05.766Z,3.70
2017-12-15T14:17:32.701Z,3.70
2017-12-15T14:19:59.616Z,3.70
2017-12-15T14:22:27.309Z,3.60
2017-12-15T14:24:55.160Z,3.70
2017-12-15T14:27:22.084Z,3.80
2017-12-15T14:29:49.753Z,3.50
2017-12-15T14:32:17.452Z,3.50
2017-12-15T14:34:44.423Z,3.50
2017-12-15T14:37:11.377Z,3.50
2017-12-15T14:39:38.345Z,3.50
2017-12-15T14:42:06.053Z,3.50
2017-12-15T14:44:32.969Z,3.60
2017-12-15T14:46:59.922Z,3.50
2017-12-15T14:49:26.837Z,3.70
2017-12-15T14:51:54.549Z,3.60
2017-12-15T14:54:21.476Z,3.80
2017-12-15T14:56:48.410Z,3.80
2017-12-15T14:59:15.333Z,3.50
2017-12-15T15:01:43.061Z,3.40
2017-12-15T15:04:09.970Z,3.40
2017-12-15T15:06:36.888Z,3.30
2017-12-15T15:09:04.569Z,3.40
2017-12-15T15:11:31.528Z,3.60
2017-12-15T15:13:58.473Z,3.30
2017-12-15T15:16:26.175Z,3.40
2017-12-15T15:18:53.140Z,3.50
2017-12-15T15:21:20.069Z,3.40
2017-12-15T15:23:47.016Z,3.40
2017-12-15T15:26:14.025Z,3.40
2017-12-15T15:28:41.769Z,3.40
2017-12-15T15:31:09.571Z,3.40
2017-12-15T15:33:37.732Z,3.50
2017-12-15T15:36:04.656Z,3.30
2017-12-15T15:38:32.332Z,3.30
2017-12-15T15:40:59.329Z,3.40
2017-12-15T15:43:26.329Z,3.30
2017-12-15T15:45:53.382Z,3.20
2017-12-15T15:48:20.325Z,3.10
2017-12-15T15:50:47.257Z,3.10
2017-12-15T15:53:14.166Z,3.00
2017-12-15T15:55:41.125Z,2.90
2017-12-15T15:58:08.808Z,2.90
2017-12-15T16:00:35.734Z,2.90
2017-12-15T16:03:03.412Z,3.00
2017-12-15T16:05:30.345Z,3.20
2017-12-15T16:07:58.034Z,3.00
2017-12-15T16:10:24.960Z,3.00
2017-12-15T16:12:51.897Z,3.00
2017-12-15T16:15:18.820Z,3.00
2017-12-15T16:17:45.731Z,3.10
2017-12-15T16:20:12.665Z,3.00
2017-12-15T16:22:39.572Z,3.00
2017-12-15T16:25:07.427Z,3.00
2017-12-15T16:27:35.130Z,3.10
2017-12-15T16:30:02.088Z,3.20
2017-12-15T16:32:28.997Z,3.10
2017-12-15T16:34:56.692Z,3.20
2017-12-15T16:37:23.608Z,3.50
2017-12-15T16:39:50.530Z,3.10
2017-12-15T16:42:18.208Z,3.10
2017-12-15T16:44:45.896Z,3.20
2017-12-15T16:47:12.796Z,3.10
2017-12-15T16:49:39.753Z,3.10
2017-12-15T16:52:07.429Z,3.10
2017-12-15T16:54:34.379Z,3.10
2017-12-15T16:57:01.294Z,3.10
2017-12-15T16:59:28.220Z,3.00
2017-12-15T17:01:55.134Z,3.00
2017-12-15T17:04:22.081Z,3.10
2017-12-15T17:06:49.262Z,3.00
2017-12-15T17:09:16.175Z,3.30
2017-12-15T17:11:43.108Z,3.00
2017-12-15T17:14:10.036Z,3.00
2017-12-15T17:16:36.935Z,2.90
2017-12-15T17:19:03.877Z,2.90
2017-12-15T17:21:30.792Z,2.90
2017-12-15T17:23:58.681Z,3.00
2017-12-15T17:26:25.674Z,3.00
2017-12-15T17:28:52.620Z,2.90
2017-12-15T17:31:21.544Z,2.90
2017-12-15T17:33:48.459Z,2.70
2017-12-15T17:36:15.382Z,2.60
2017-12-15T17:38:42.335Z,2.60
2017-12-15T17:41:10.044Z,2.70
2017-12-15T17:43:36.973Z,2.80
2017-12-15T17:46:03.885Z,2.70
2017-12-15T17:48:31.578Z,2.70
2017-12-15T17:50:58.501Z,3.00
2017-12-15T17:53:25.437Z,2.70
2017-12-15T17:55:53.123Z,2.80
2017-12-15T17:58:20.047Z,2.60
2017-12-15T18:00:47.726Z,2.80
2017-12-15T18:03:14.667Z,2.80
2017-12-15T18:05:41.576Z,2.90
2017-12-15T18:08:08.505Z,2.90
2017-12-15T18:10:35.434Z,2.90
2017-12-15T18:13:02.419Z,2.90
2017-12-15T18:15:30.107Z,2.90
2017-12-15T18:17:57.035Z,2.80
2017-12-15T18:20:24.721Z,3.00
2017-12-15T18:22:51.665Z,3.10
2017-12-15T18:25:18.586Z,2.90
2017-12-15T18:27:45.513Z,2.90
2017-12-15T18:30:12.421Z,3.00
2017-12-15T18:32:39.367Z,3.00
2017-12-15T18:35:06.286Z,3.00
2017-12-15T18:37:33.236Z,3.00
2017-12-15T18:40:00.149Z,3.00
2017-12-15T18:42:28.878Z,3.10
2017-12-15T18:44:55.781Z,3.10
2017-12-15T18:47:23.682Z,3.00
2017-12-15T18:49:50.618Z,3.00
2017-12-15T18:52:17.567Z,3.00
2017-12-15T18:54:44.494Z,3.10
2017-12-15T18:57:11.425Z,3.10
2017-12-15T18:59:39.125Z,3.00
2017-12-15T19:02:06.095Z,3.20
2017-12-15T19:04:33.045Z,3.10
2017-12-15T19:06:59.986Z,3.00
2017-12-15T19:09:26.896Z,3.10
2017-12-15T19:11:53.881Z,3.10
2017-12-15T19:14:20.836Z,3.20
2017-12-15T19:16:47.985Z,3.10
2017-12-15T19:19:14.893Z,3.10
2017-12-15T19:21:44.785Z,3.10
2017-12-15T19:24:11.741Z,3.10
2017-12-15T19:26:38.664Z,3.20
2017-12-15T19:29:05.577Z,3.20
2017-12-15T19:31:33.273Z,3.20
2017-12-15T19:34:00.224Z,3.10
2017-12-15T19:36:27.168Z,3.10
2017-12-15T19:38:54.109Z,3.00
2017-12-15T19:41:21.016Z,2.90
2017-12-15T19:43:47.970Z,3.00
2017-12-15T19:46:15.662Z,3.00
2017-12-15T19:48:42.581Z,3.20
2017-12-15T19:51:10.262Z,3.10
2017-12-15T19:53:37.188Z,3.10
2017-12-15T19:56:04.864Z,3.10
2017-12-15T19:58:32.552Z,3.10
2017-12-15T20:01:01.392Z,3.30
2017-12-15T20:03:28.316Z,3.20
2017-12-15T20:05:55.221Z,3.10
2017-12-15T20:08:22.171Z,3.20
2017-12-15T20:10:49.204Z,3.10
2017-12-15T20:13:16.152Z,3.10
2017-12-15T20:15:46.433Z,3.10
2017-12-15T20:18:13.350Z,3.10
2017-12-15T20:20:40.273Z,3.10
2017-12-15T20:23:07.184Z,3.00
2017-12-15T20:25:34.447Z,3.20
2017-12-15T20:28:02.369Z,3.10
2017-12-15T20:30:29.292Z,3.10
2017-12-15T20:32:56.316Z,3.10
2017-12-15T20:35:23.257Z,3.10
2017-12-15T20:37:50.161Z,3.20
2017-12-15T20:40:17.129Z,3.20
2017-12-15T20:42:44.853Z,3.20
2017-12-15T20:45:11.819Z,3.20
2017-12-15T20:47:38.734Z,3.20
2017-12-15T20:50:05.662Z,3.10
2017-12-15T20:52:33.484Z,3.10
2017-12-15T20:55:00.423Z,3.10
2017-12-15T20:57:27.387Z,3.10
2017-12-15T20:59:55.116Z,3.10
2017-12-15T21:02:23.961Z,3.30
2017-12-15T21:04:50.891Z,3.10
2017-12-15T21:07:17.796Z,3.10
2017-12-15T21:09:44.746Z,3.10
2017-12-15T21:12:11.688Z,3.20
2017-12-15T21:14:38.628Z,3.10
2017-12-15T21:17:05.533Z,3.10
2017-12-15T21:19:33.237Z,3.10
2017-12-15T21:22:00.188Z,3.20
2017-12-15T21:24:27.133Z,3.10
2017-12-15T21:26:54.070Z,3.10
2017-12-15T21:29:21.021Z,3.10
2017-12-15T21:31:47.983Z,3.10
2017-12-15T21:34:15.246Z,3.10
2017-12-15T21:36:42.330Z,3.10
2017-12-15T21:39:09.255Z,3.10
2017-12-15T21:41:36.990Z,3.10
2017-12-15T21:44:04.910Z,3.10
2017-12-15T21:46:31.820Z,3.10
2017-12-15T21:48:58.753Z,3.10
2017-12-15T21:51:25.667Z,3.10
2017-12-15T21:53:52.579Z,3.20
2017-12-15T21:56:19.500Z,3.10
2017-12-15T21:58:46.440Z,3.10
2017-12-15T22:01:13.352Z,3.20
2017-12-15T22:03:40.286Z,3.10
2017-12-15T22:06:07.222Z,3.10
2017-12-15T22:08:34.171Z,3.20
2017-12-15T22:11:01.090Z,3.20
2017-12-15T22:13:28.038Z,3.30
2017-12-15T22:15:54.987Z,3.30
2017-12-15T22:18:21.925Z,3.30
2017-12-15T22:20:49.605Z,3.20
2017-12-15T22:23:16.519Z,3.40
2017-12-15T22:25:44.230Z,2.90
2017-12-15T22:28:11.148Z,3.00
2017-12-15T22:30:38.086Z,2.80
2017-12-15T22:33:05.779Z,2.90
2017-12-15T22:35:32.725Z,3.00
2017-12-15T22:37:59.690Z,3.00
2017-12-15T22:40:28.574Z,3.00
2017-12-15T22:42:55.481Z,3.00
2017-12-15T22:45:22.384Z,3.10
2017-12-15T22:47:49.308Z,3.10
2017-12-15T22:50:16.213Z,3.10
2017-12-15T22:52:43.127Z,3.10
2017-12-15T22:55:10.053Z,3.20
2017-12-15T22:57:37.907Z,3.30
2017-12-15T23:00:05.583Z,3.30
2017-12-15T23:02:32.518Z,3.40
2017-12-15T23:05:00.188Z,3.20
2017-12-15T23:07:27.115Z,3.50
2017-12-15T23:09:54.789Z,3.50
2017-12-15T23:12:21.721Z,3.30
2017-12-15T23:14:49.401Z,3.40
2017-12-15T23:17:16.333Z,3.40
2017-12-15T23:19:44.008Z,3.50
2017-12-15T23:22:10.933Z,3.60
2017-12-15T23:24:38.621Z,3.50
2017-12-15T23:27:05.545Z,3.40
2017-12-15T23:29:32.465Z,3.50
2017-12-15T23:31:59.384Z,3.50
2017-12-15T23:34:26.297Z,3.50
2017-12-15T23:36:53.233Z,3.60
2017-12-15T23:39:20.140Z,3.50
2017-12-15T23:41:47.065Z,3.50
2017-12-15T23:44:14.792Z,3.60
2017-12-15T23:46:41.727Z,3.70
2017-12-15T23:49:08.648Z,3.60
2017-12-15T23:51:35.581Z,3.60
2017-12-15T23:54:02.549Z,3.60
2017-12-15T23:56:42.150Z,3.60
2017-12-15T23:59:09.066Z,3.50
